Indianapolis/Eagle Creek Airpark, Indiana
Current Conditions -  °F | °C
As of 12:53 AM on Sunday 26 Oct 2014 (Local Time) from KEYE Reporting Station
Clear Clear  
Wind Chill: 14°   Ceiling: Unl
Heat Index: 14°   Visibility: 10mi
Dew Point:   Wind: 7mph
Humidity: 51%   Direction: 300°WNW
Pressure: 29.97"   Gusts: NA
Location:  39.83°N, 86.3°W
Report Text: KEYE 260453Z AUTO 30006KT 10SM CLR 14/04 A2997 RMK AO2 SLP145 T01390039 402440100 $
Loading
Personal Weather Stations






























Interactive Weather Map
Tropical Storm Tracking
New forecast layout! Learn more

10-Day Weather Forecast

Advertisements
Track Severe Weather on mobile